createdAt,value
2022-08-12T00:00:00.621Z,3.00
2022-08-12T00:02:46.682Z,2.80
2022-08-12T00:05:32.594Z,2.73
2022-08-12T00:08:32.041Z,2.40
2022-08-12T00:11:23.176Z,2.57
2022-08-12T00:14:09.107Z,2.40
2022-08-12T00:16:56.489Z,2.43
2022-08-12T00:19:42.610Z,2.60
2022-08-12T00:22:29.265Z,2.70
2022-08-12T00:25:19.026Z,2.40
2022-08-12T00:28:05.908Z,2.47
2022-08-12T00:30:51.951Z,2.43
2022-08-12T00:33:52.354Z,2.77
2022-08-12T00:36:43.888Z,2.57
2022-08-12T00:39:31.393Z,2.50
2022-08-12T00:42:11.119Z,2.80
2022-08-12T00:44:45.098Z,2.60
2022-08-12T00:47:25.679Z,2.70
2022-08-12T00:49:53.876Z,3.07
2022-08-12T00:52:21.124Z,2.83
2022-08-12T00:54:49.709Z,3.27
2022-08-12T00:57:17.936Z,2.83
2022-08-12T00:59:47.358Z,2.60
2022-08-12T01:02:16.206Z,2.60
2022-08-12T01:05:03.270Z,2.73
2022-08-12T01:07:49.434Z,2.90
2022-08-12T01:10:35.386Z,2.87
2022-08-12T01:13:10.061Z,2.90
2022-08-12T01:15:49.467Z,2.77
2022-08-12T01:18:17.384Z,3.33
2022-08-12T01:21:04.799Z,2.90
2022-08-12T01:23:50.464Z,2.70
2022-08-12T01:26:23.441Z,2.57
2022-08-12T01:28:55.949Z,2.73
2022-08-12T01:31:29.144Z,2.90
2022-08-12T01:34:04.455Z,2.73
2022-08-12T01:36:37.369Z,2.93
2022-08-12T01:39:05.536Z,2.70
2022-08-12T01:41:36.133Z,2.93
2022-08-12T01:44:03.965Z,2.90
2022-08-12T01:46:45.009Z,3.10
2022-08-12T01:49:18.866Z,2.90
2022-08-12T01:52:21.351Z,2.67
2022-08-12T01:54:44.388Z,2.60
2022-08-12T01:57:58.794Z,2.70
2022-08-12T02:00:07.220Z,2.40
2022-08-12T02:02:40.173Z,2.77
2022-08-12T02:05:39.734Z,2.57
2022-08-12T02:08:36.299Z,2.77
2022-08-12T02:11:24.355Z,2.37
2022-08-12T02:14:17.280Z,2.90
2022-08-12T02:16:47.118Z,2.90
2022-08-12T02:19:22.229Z,2.67
2022-08-12T02:22:12.176Z,2.70
2022-08-12T02:24:40.014Z,2.77
2022-08-12T02:27:08.308Z,2.83
2022-08-12T02:29:36.134Z,2.70
2022-08-12T02:32:04.597Z,2.93
2022-08-12T02:34:32.303Z,2.40
2022-08-12T02:37:02.655Z,2.80
2022-08-12T02:39:33.725Z,2.70
2022-08-12T02:42:02.748Z,2.90
2022-08-12T02:44:32.545Z,2.77
2022-08-12T02:47:01.943Z,2.90
2022-08-12T02:49:35.412Z,3.00
2022-08-12T02:52:03.351Z,2.83
2022-08-12T02:54:30.474Z,2.70
2022-08-12T02:56:59.073Z,2.57
2022-08-12T02:59:27.961Z,2.60
2022-08-12T03:02:04.505Z,2.83
2022-08-12T03:04:37.890Z,2.83
2022-08-12T03:07:55.796Z,2.90
2022-08-12T03:10:37.647Z,2.67
2022-08-12T03:13:07.112Z,2.70
2022-08-12T03:15:35.671Z,2.97
2022-08-12T03:18:26.934Z,2.60
2022-08-12T03:20:55.967Z,2.87
2022-08-12T03:23:30.314Z,2.60
2022-08-12T03:25:58.946Z,2.87
2022-08-12T03:28:44.803Z,2.60
2022-08-12T03:31:11.998Z,2.97
2022-08-12T03:33:42.406Z,3.00
2022-08-12T03:36:09.833Z,2.40
2022-08-12T03:38:40.308Z,2.50
2022-08-12T03:41:31.022Z,2.73
2022-08-12T03:44:16.936Z,2.70
2022-08-12T03:47:05.037Z,2.60
2022-08-12T03:49:50.947Z,2.80
2022-08-12T03:52:36.815Z,3.00
2022-08-12T03:55:22.708Z,3.10
2022-08-12T03:58:08.828Z,2.80
2022-08-12T04:00:37.381Z,3.30
2022-08-12T04:03:25.144Z,3.13
2022-08-12T04:05:55.484Z,2.83
2022-08-12T04:08:25.805Z,2.90
2022-08-12T04:11:13.430Z,3.10
2022-08-12T04:13:45.369Z,3.23
2022-08-12T04:16:14.437Z,3.40
2022-08-12T04:18:42.426Z,2.70
2022-08-12T04:21:12.679Z,2.63
2022-08-12T04:23:47.625Z,2.80
2022-08-12T04:26:15.630Z,3.07
2022-08-12T04:28:43.880Z,3.20
2022-08-12T04:31:13.061Z,3.63
2022-08-12T04:33:42.340Z,3.10
2022-08-12T04:36:09.503Z,3.30
2022-08-12T04:38:37.355Z,2.80
2022-08-12T04:41:05.685Z,2.90
2022-08-12T04:43:59.861Z,3.03
2022-08-12T04:46:23.947Z,3.23
2022-08-12T04:48:53.053Z,2.90
2022-08-12T04:51:20.749Z,3.22
2022-08-12T04:53:48.478Z,3.38
2022-08-12T04:56:16.496Z,3.00
2022-08-12T04:58:43.774Z,3.20
2022-08-12T05:01:11.179Z,2.90
2022-08-12T05:03:46.709Z,2.70
2022-08-12T05:06:18.917Z,2.60
2022-08-12T05:08:55.534Z,2.70
2022-08-12T05:11:24.756Z,2.70
2022-08-12T05:13:55.371Z,2.83
2022-08-12T05:16:30.770Z,2.63
2022-08-12T05:18:58.889Z,2.65
2022-08-12T05:21:26.607Z,2.60
2022-08-12T05:23:54.875Z,2.60
2022-08-12T05:26:22.794Z,2.92
2022-08-12T05:28:50.935Z,2.60
2022-08-12T05:31:46.173Z,2.75
2022-08-12T05:34:06.880Z,2.35
2022-08-12T05:36:34.067Z,2.53
2022-08-12T05:39:01.257Z,2.70
2022-08-12T05:41:32.601Z,2.75
2022-08-12T05:44:00.719Z,2.60
2022-08-12T05:46:29.039Z,2.67
2022-08-12T05:48:56.643Z,2.63
2022-08-12T05:51:24.846Z,2.70
2022-08-12T05:54:05.743Z,2.97
2022-08-12T05:56:34.928Z,2.60
2022-08-12T05:59:03.151Z,2.45
2022-08-12T06:02:09.424Z,2.72
2022-08-12T06:04:17.762Z,2.67
2022-08-12T06:06:51.246Z,3.10
2022-08-12T06:09:18.381Z,2.85
2022-08-12T06:12:05.926Z,2.88
2022-08-12T06:14:36.675Z,2.67
2022-08-12T06:17:05.102Z,2.70
2022-08-12T06:20:26.730Z,2.53
2022-08-12T06:22:19.579Z,2.60
2022-08-12T06:24:48.534Z,2.75
2022-08-12T06:27:18.749Z,2.70
2022-08-12T06:30:08.848Z,2.60
2022-08-12T06:32:33.228Z,2.58
2022-08-12T06:35:23.250Z,2.70
2022-08-12T06:37:56.585Z,2.70
2022-08-12T06:40:43.822Z,2.50
2022-08-12T06:43:10.982Z,2.50
2022-08-12T06:45:46.691Z,2.20
2022-08-12T06:48:14.294Z,2.50
2022-08-12T06:50:42.377Z,2.55
2022-08-12T06:53:11.100Z,2.33
2022-08-12T06:55:39.393Z,2.60
2022-08-12T06:58:25.530Z,2.20
2022-08-12T07:00:54.016Z,1.98
2022-08-12T07:03:30.495Z,1.80
2022-08-12T07:06:05.767Z,2.30
2022-08-12T07:08:34.131Z,2.20
2022-08-12T07:11:02.302Z,2.30
2022-08-12T07:14:02.622Z,2.05
2022-08-12T07:16:26.855Z,2.13
2022-08-12T07:18:55.359Z,2.10
2022-08-12T07:21:24.971Z,1.95
2022-08-12T07:24:12.163Z,1.70
2022-08-12T07:26:44.291Z,2.03
2022-08-12T07:29:13.159Z,1.83
2022-08-12T07:31:40.742Z,1.88
2022-08-12T07:34:07.967Z,2.03
2022-08-12T07:36:35.431Z,1.80
2022-08-12T07:39:02.698Z,1.90
2022-08-12T07:41:31.939Z,1.80
2022-08-12T07:44:04.476Z,1.40
2022-08-12T07:46:36.631Z,1.65
2022-08-12T07:49:07.952Z,1.80
2022-08-12T07:51:35.462Z,1.88
2022-08-12T07:54:03.784Z,1.98
2022-08-12T07:56:31.809Z,1.83
2022-08-12T07:59:01.058Z,1.90
2022-08-12T08:01:28.446Z,1.90
2022-08-12T08:04:18.832Z,2.20
2022-08-12T08:06:47.217Z,1.90
2022-08-12T08:09:15.458Z,1.92
2022-08-12T08:12:01.439Z,2.00
2022-08-12T08:14:29.154Z,1.83
2022-08-12T08:16:57.603Z,1.60
2022-08-12T08:19:26.025Z,2.00
2022-08-12T08:21:54.926Z,1.70
2022-08-12T08:24:24.574Z,1.70
2022-08-12T08:26:53.118Z,1.77
2022-08-12T08:29:24.338Z,1.95
2022-08-12T08:31:54.625Z,1.70
2022-08-12T08:34:33.667Z,1.60
2022-08-12T08:37:10.716Z,1.42
2022-08-12T08:39:42.704Z,1.40
2022-08-12T08:42:28.503Z,1.60
2022-08-12T08:44:58.464Z,1.77
2022-08-12T08:47:25.984Z,1.90
2022-08-12T08:49:53.826Z,1.67
2022-08-12T08:52:40.612Z,1.50
2022-08-12T08:55:13.852Z,1.50
2022-08-12T08:57:44.764Z,1.80
2022-08-12T09:00:15.549Z,1.58
2022-08-12T09:02:58.387Z,1.48
2022-08-12T09:05:26.901Z,1.60
2022-08-12T09:08:09.139Z,1.70
2022-08-12T09:13:29.217Z,1.55
2022-08-12T09:16:20.340Z,1.80
2022-08-12T09:18:48.168Z,1.60
2022-08-12T09:21:19.941Z,1.70
2022-08-12T09:23:59.373Z,1.55
2022-08-12T09:26:38.101Z,1.52
2022-08-12T09:29:20.277Z,1.55
2022-08-12T09:32:09.512Z,1.48
2022-08-12T09:34:42.102Z,1.60
2022-08-12T09:37:19.353Z,1.55
2022-08-12T09:40:05.720Z,1.33
2022-08-12T09:43:15.074Z,1.80
2022-08-12T09:46:19.387Z,1.33
2022-08-12T09:48:34.838Z,1.33
2022-08-12T09:51:03.120Z,1.42
2022-08-12T09:53:38.252Z,1.30
2022-08-12T09:56:59.943Z,1.25
2022-08-12T09:59:00.302Z,1.55
2022-08-12T10:01:35.451Z,1.30
2022-08-12T10:04:19.774Z,1.40
2022-08-12T10:06:55.246Z,1.40
2022-08-12T10:09:56.726Z,1.30
2022-08-12T10:12:32.952Z,1.40
2022-08-12T10:16:02.978Z,1.48
2022-08-12T10:18:05.948Z,1.40
2022-08-12T10:20:34.882Z,1.60
2022-08-12T10:23:03.504Z,1.70
2022-08-12T10:26:34.057Z,1.40
2022-08-12T10:29:02.955Z,1.20
2022-08-12T10:32:19.629Z,1.63
2022-08-12T10:34:26.024Z,1.52
2022-08-12T10:37:00.418Z,1.23
2022-08-12T10:40:06.887Z,1.30
2022-08-12T10:42:57.923Z,1.40
2022-08-12T10:45:30.295Z,1.55
2022-08-12T10:48:19.835Z,1.50
2022-08-12T10:50:58.480Z,1.50
2022-08-12T10:53:44.907Z,1.45
2022-08-12T10:56:16.762Z,1.45
2022-08-12T10:58:46.166Z,1.50
2022-08-12T11:01:50.118Z,1.30
2022-08-12T11:04:24.438Z,1.38
2022-08-12T11:07:05.357Z,1.70
2022-08-12T11:09:54.232Z,1.20
2022-08-12T11:12:57.218Z,1.85
2022-08-12T11:15:18.646Z,1.50
2022-08-12T11:17:53.235Z,1.50
2022-08-12T11:20:22.107Z,1.58
2022-08-12T11:22:59.125Z,1.50
2022-08-12T11:25:56.554Z,1.33
2022-08-12T11:28:14.939Z,1.30
2022-08-12T11:30:43.318Z,1.45
2022-08-12T11:33:12.277Z,1.40
2022-08-12T11:35:43.107Z,1.50
2022-08-12T11:38:11.345Z,1.40
2022-08-12T11:40:42.483Z,1.42
2022-08-12T11:43:18.846Z,1.35
2022-08-12T11:45:53.024Z,1.60
2022-08-12T11:48:26.679Z,1.60
2022-08-12T11:50:54.554Z,1.20
2022-08-12T11:53:58.556Z,1.50
2022-08-12T11:56:11.392Z,1.48
2022-08-12T12:01:59.098Z,1.40
2022-08-12T12:02:01.716Z,1.60
2022-08-12T12:04:25.899Z,1.60
2022-08-12T12:06:56.734Z,1.63
2022-08-12T12:09:51.916Z,1.40
2022-08-12T12:12:21.528Z,1.50
2022-08-12T12:14:54.504Z,1.42
2022-08-12T12:17:22.749Z,1.40
2022-08-12T12:19:49.944Z,1.50
2022-08-12T12:22:23.093Z,1.60
2022-08-12T12:24:51.232Z,1.55
2022-08-12T12:27:19.882Z,1.50
2022-08-12T12:30:17.892Z,1.60
2022-08-12T12:32:34.456Z,1.70
2022-08-12T12:35:14.003Z,1.57
2022-08-12T12:38:04.954Z,1.45
2022-08-12T12:40:39.823Z,1.40
2022-08-12T12:43:07.681Z,1.48
2022-08-12T12:45:36.256Z,1.40
2022-08-12T12:48:04.510Z,1.20
2022-08-12T12:50:35.334Z,1.50
2022-08-12T12:53:03.585Z,1.60
2022-08-12T12:55:34.756Z,1.30
2022-08-12T12:58:04.829Z,1.40
2022-08-12T13:00:33.320Z,1.20
2022-08-12T13:03:00.790Z,1.20
2022-08-12T13:05:42.636Z,1.17
2022-08-12T13:08:28.241Z,1.50
2022-08-12T13:11:04.282Z,1.30
2022-08-12T13:14:08.568Z,1.23
2022-08-12T13:16:23.488Z,1.50
2022-08-12T13:18:51.303Z,1.73
2022-08-12T13:21:33.260Z,1.35
2022-08-12T13:24:10.081Z,1.23
2022-08-12T13:26:40.237Z,1.35
2022-08-12T13:29:10.307Z,1.30
2022-08-12T13:32:13.491Z,1.48
2022-08-12T13:34:33.656Z,1.30
2022-08-12T13:37:04.444Z,1.45
2022-08-12T13:39:36.454Z,1.20
2022-08-12T13:42:14.686Z,1.35
2022-08-12T13:44:42.073Z,1.42
2022-08-12T13:47:18.398Z,1.50
2022-08-12T13:49:53.817Z,1.85
2022-08-12T13:52:23.536Z,1.30
2022-08-12T13:54:56.070Z,1.40
2022-08-12T13:57:25.540Z,1.35
2022-08-12T13:59:55.132Z,1.40
2022-08-12T14:02:23.491Z,1.45
2022-08-12T14:04:56.627Z,1.38
2022-08-12T14:07:26.326Z,1.30
2022-08-12T14:10:16.249Z,1.33
2022-08-12T14:12:54.858Z,1.30
2022-08-12T14:15:36.491Z,1.10
2022-08-12T14:18:08.433Z,1.08
2022-08-12T14:20:35.587Z,1.30
2022-08-12T14:24:02.036Z,1.08
2022-08-12T14:25:55.708Z,1.10
2022-08-12T14:28:23.320Z,1.05
2022-08-12T14:31:00.211Z,0.90
2022-08-12T14:33:44.530Z,0.90
2022-08-12T14:36:12.855Z,0.93
2022-08-12T14:38:41.363Z,0.90
2022-08-12T14:41:09.965Z,0.95
2022-08-12T14:43:58.958Z,0.80
2022-08-12T14:46:27.195Z,0.70
2022-08-12T14:48:55.443Z,0.80
2022-08-12T14:53:04.539Z,0.70
2022-08-12T14:56:58.737Z,0.70
2022-08-12T14:57:05.960Z,0.88
2022-08-12T15:00:04.075Z,0.60
2022-08-12T15:02:31.301Z,0.50
2022-08-12T15:05:03.540Z,0.63
2022-08-12T15:07:49.989Z,0.60
2022-08-12T15:10:31.795Z,0.80
2022-08-12T15:12:59.801Z,0.60
2022-08-12T15:15:30.456Z,0.90
2022-08-12T15:18:02.096Z,0.77
2022-08-12T15:20:37.724Z,0.70
2022-08-12T15:23:18.105Z,0.80
2022-08-12T15:25:49.446Z,0.70
2022-08-12T15:28:28.837Z,0.90
2022-08-12T15:30:58.177Z,0.70
2022-08-12T15:33:44.729Z,0.75
2022-08-12T15:36:14.342Z,0.60
2022-08-12T15:38:46.855Z,0.73
2022-08-12T15:41:14.654Z,1.30
2022-08-12T15:44:16.902Z,0.73
2022-08-12T15:46:32.622Z,0.80
2022-08-12T15:49:00.302Z,0.80
2022-08-12T15:51:58.774Z,0.70
2022-08-12T15:54:30.737Z,0.80
2022-08-12T15:57:10.930Z,0.80
2022-08-12T16:00:00.445Z,0.80
2022-08-12T16:02:40.902Z,0.70
2022-08-12T16:06:19.086Z,0.73
2022-08-12T16:08:06.138Z,0.90
2022-08-12T16:10:33.667Z,1.00
2022-08-12T16:13:04.731Z,0.90
2022-08-12T16:15:35.705Z,0.85
2022-08-12T16:18:18.036Z,0.90
2022-08-12T16:20:47.358Z,1.10
2022-08-12T16:23:26.211Z,0.73
2022-08-12T16:26:03.386Z,0.82
2022-08-12T16:28:34.124Z,0.80
2022-08-12T16:31:02.033Z,0.80
2022-08-12T16:33:35.686Z,0.93
2022-08-12T16:36:04.558Z,0.88
2022-08-12T16:38:31.829Z,1.00
2022-08-12T16:40:59.136Z,0.90
2022-08-12T16:43:29.805Z,0.85
2022-08-12T16:46:08.054Z,0.90
2022-08-12T16:48:49.749Z,0.80
2022-08-12T16:51:17.759Z,0.90
2022-08-12T16:53:45.677Z,0.90
2022-08-12T16:56:15.340Z,0.93
2022-08-12T16:58:43.399Z,0.95
2022-08-12T17:01:14.479Z,0.90
2022-08-12T17:03:52.249Z,1.00
2022-08-12T17:06:22.364Z,0.70
2022-08-12T17:08:55.302Z,1.10
2022-08-12T17:11:22.721Z,1.05
2022-08-12T17:13:53.478Z,1.00
2022-08-12T17:16:21.650Z,0.90
2022-08-12T17:18:57.408Z,1.02
2022-08-12T17:21:40.767Z,1.05
2022-08-12T17:24:16.429Z,1.10
2022-08-12T17:26:49.188Z,0.90
2022-08-12T17:29:31.882Z,1.10
2022-08-12T17:32:08.557Z,2.30
2022-08-12T17:34:55.395Z,1.10
2022-08-12T17:37:22.707Z,1.00
2022-08-12T17:40:14.982Z,1.10
2022-08-12T17:42:47.254Z,1.00
2022-08-12T17:45:19.903Z,1.00
2022-08-12T17:48:05.001Z,1.10
2022-08-12T17:50:36.721Z,1.00
2022-08-12T17:53:05.355Z,1.15
2022-08-12T17:55:43.269Z,1.20
2022-08-12T17:58:15.743Z,1.10
2022-08-12T18:00:47.455Z,1.48
2022-08-12T18:04:05.054Z,1.20
2022-08-12T18:06:08.083Z,1.17
2022-08-12T18:08:53.394Z,1.00
2022-08-12T18:12:05.926Z,1.10
2022-08-12T18:14:27.851Z,1.10
2022-08-12T18:16:56.954Z,1.10
2022-08-12T18:19:24.698Z,1.25
2022-08-12T18:22:02.704Z,1.00
2022-08-12T18:24:30.574Z,1.10
2022-08-12T18:26:58.026Z,1.10
2022-08-12T18:29:42.393Z,1.05
2022-08-12T18:32:44.002Z,1.10
2022-08-12T18:35:10.312Z,1.20
2022-08-12T18:37:41.630Z,1.00
2022-08-12T18:40:28.889Z,1.17
2022-08-12T18:42:59.275Z,1.15
2022-08-12T18:45:31.607Z,1.40
2022-08-12T18:48:16.576Z,1.00
2022-08-12T18:50:50.169Z,1.10
2022-08-12T18:54:06.479Z,1.05
2022-08-12T18:56:05.042Z,1.10
2022-08-12T18:58:37.609Z,1.13
2022-08-12T19:01:08.551Z,1.38
2022-08-12T19:03:39.080Z,1.35
2022-08-12T19:06:06.759Z,1.40
2022-08-12T19:08:36.785Z,1.27
2022-08-12T19:11:24.864Z,1.60
2022-08-12T19:14:12.861Z,1.40
2022-08-12T19:16:43.743Z,1.60
2022-08-12T19:19:11.132Z,1.60
2022-08-12T19:21:41.793Z,1.65
2022-08-12T19:24:42.998Z,1.70
2022-08-12T19:27:10.888Z,1.73
2022-08-12T19:29:44.522Z,1.83
2022-08-12T19:32:31.681Z,1.60
2022-08-12T19:38:03.734Z,1.70
2022-08-12T19:40:37.354Z,1.63
2022-08-12T19:43:19.337Z,1.60
2022-08-12T19:45:49.738Z,1.33
2022-08-12T19:48:18.305Z,1.60
2022-08-12T19:50:50.228Z,1.42
2022-08-12T19:53:19.956Z,1.40
2022-08-12T19:55:51.851Z,1.70
2022-08-12T19:58:20.288Z,1.38
2022-08-12T20:00:53.143Z,1.33
2022-08-12T20:03:39.115Z,1.40
2022-08-12T20:06:15.585Z,1.40
2022-08-12T20:08:55.834Z,1.70
2022-08-12T20:12:14.379Z,1.52
2022-08-12T20:14:18.599Z,1.35
2022-08-12T20:16:57.294Z,1.55
2022-08-12T20:20:00.988Z,1.60
2022-08-12T20:22:24.423Z,1.50
2022-08-12T20:24:56.975Z,1.65
2022-08-12T20:27:29.381Z,1.65
2022-08-12T20:30:14.096Z,1.65
2022-08-12T20:32:52.783Z,1.40
2022-08-12T20:35:24.387Z,1.40
2022-08-12T20:38:06.660Z,1.50
2022-08-12T20:40:39.304Z,1.40
2022-08-12T20:43:06.860Z,1.42
2022-08-12T20:45:50.796Z,1.50
2022-08-12T20:48:25.175Z,1.73
2022-08-12T20:50:53.633Z,1.50
2022-08-12T20:53:33.186Z,1.42
2022-08-12T20:56:22.310Z,1.63
2022-08-12T20:58:59.987Z,1.45
2022-08-12T21:01:29.159Z,1.70
2022-08-12T21:04:33.358Z,1.27
2022-08-12T21:07:08.389Z,1.55
2022-08-12T21:09:41.851Z,1.50
2022-08-12T21:12:31.507Z,1.75
2022-08-12T21:15:18.056Z,1.58
2022-08-12T21:18:07.951Z,1.90
2022-08-12T21:20:34.958Z,1.80
2022-08-12T21:23:05.630Z,1.60
2022-08-12T21:25:36.333Z,1.80
2022-08-12T21:28:12.569Z,1.60
2022-08-12T21:31:10.503Z,1.80
2022-08-12T21:33:30.809Z,1.52
2022-08-12T21:35:59.008Z,1.88
2022-08-12T21:38:34.739Z,1.80
2022-08-12T21:41:07.047Z,1.63
2022-08-12T21:43:44.433Z,1.60
2022-08-12T21:46:35.406Z,1.90
2022-08-12T21:49:05.555Z,2.08
2022-08-12T21:51:48.961Z,2.10
2022-08-12T21:54:21.675Z,1.80
2022-08-12T21:56:49.493Z,2.00
2022-08-12T21:59:18.431Z,1.90
2022-08-12T22:01:49.240Z,1.90
2022-08-12T22:04:35.273Z,2.00
2022-08-12T22:07:02.541Z,1.83
2022-08-12T22:09:30.229Z,2.10
2022-08-12T22:12:29.521Z,1.73
2022-08-12T22:14:56.711Z,1.73
2022-08-12T22:17:49.497Z,1.70
2022-08-12T22:20:18.040Z,1.67
2022-08-12T22:22:56.208Z,1.60
2022-08-12T22:25:27.884Z,2.00
2022-08-12T22:28:13.662Z,1.57
2022-08-12T22:30:59.896Z,1.67
2022-08-12T22:33:27.117Z,1.63
2022-08-12T22:35:59.258Z,1.57
2022-08-12T22:38:29.634Z,1.70
2022-08-12T22:41:00.823Z,1.90
2022-08-12T22:44:00.422Z,1.80
2022-08-12T22:46:52.054Z,1.87
2022-08-12T22:49:22.220Z,1.60
2022-08-12T22:52:00.377Z,1.80
2022-08-12T22:54:36.705Z,1.60
2022-08-12T22:57:04.833Z,1.80
2022-08-12T22:59:44.264Z,1.87
2022-08-12T23:02:28.794Z,2.00
2022-08-12T23:04:57.743Z,1.40
2022-08-12T23:07:25.038Z,1.73
2022-08-12T23:09:52.442Z,1.80
2022-08-12T23:12:40.956Z,1.80
2022-08-12T23:15:13.806Z,1.87
2022-08-12T23:17:41.989Z,1.80
2022-08-12T23:20:11.316Z,1.83
2022-08-12T23:22:40.025Z,1.90
2022-08-12T23:25:07.905Z,1.70
2022-08-12T23:28:29.338Z,1.57
2022-08-12T23:31:04.218Z,1.70
2022-08-12T23:34:01.557Z,1.80
2022-08-12T23:36:38.988Z,1.80
2022-08-12T23:40:13.644Z,1.70
2022-08-12T23:42:16.826Z,1.77
2022-08-12T23:44:43.876Z,1.87
2022-08-12T23:47:12.599Z,1.90
2022-08-12T23:49:57.101Z,1.80
2022-08-12T23:52:28.508Z,1.83
2022-08-12T23:55:23.660Z,1.90
2022-08-12T23:58:17.665Z,1.80
